createdAt,value
2019-06-20T00:00:40.040Z,24.25
2019-06-20T00:03:13.038Z,25.88
2019-06-20T00:05:46.218Z,22.77
2019-06-20T00:08:19.095Z,21.90
2019-06-20T00:10:51.917Z,23.73
2019-06-20T00:13:24.810Z,23.45
2019-06-20T00:15:57.791Z,21.62
2019-06-20T00:18:31.271Z,17.70
2019-06-20T00:21:04.155Z,18.23
2019-06-20T00:23:36.831Z,23.05
2019-06-20T00:26:09.754Z,21.07
2019-06-20T00:28:42.780Z,18.20
2019-06-20T00:31:16.671Z,16.20
2019-06-20T00:33:49.798Z,15.35
2019-06-20T00:36:22.697Z,16.80
2019-06-20T00:38:55.810Z,18.70
2019-06-20T00:41:28.817Z,21.62
2019-06-20T00:44:01.996Z,15.75
2019-06-20T00:46:34.821Z,14.00
2019-06-20T00:49:07.831Z,14.68
2019-06-20T00:51:40.841Z,16.00
2019-06-20T00:54:14.130Z,15.08
2019-06-20T00:56:47.051Z,12.43
2019-06-20T00:59:20.138Z,11.83
2019-06-20T01:01:53.038Z,16.20
2019-06-20T01:04:26.033Z,14.45
2019-06-20T01:06:58.975Z,16.00
2019-06-20T01:09:32.504Z,12.07
2019-06-20T01:12:05.400Z,11.20
2019-06-20T01:14:38.767Z,13.83
2019-06-20T01:17:11.504Z,13.40
2019-06-20T01:19:44.341Z,11.75
2019-06-20T01:22:17.425Z,12.60
2019-06-20T01:24:50.312Z,15.43
2019-06-20T01:27:23.408Z,14.20
2019-06-20T01:29:56.488Z,11.90
2019-06-20T01:32:29.425Z,10.82
2019-06-20T01:35:02.638Z,15.83
2019-06-20T01:37:35.866Z,11.93
2019-06-20T01:40:09.354Z,14.60
2019-06-20T01:42:42.241Z,16.42
2019-06-20T01:45:15.668Z,12.13
2019-06-20T01:47:48.593Z,12.20
2019-06-20T01:50:21.785Z,12.95
2019-06-20T01:52:54.981Z,11.40
2019-06-20T01:55:28.241Z,15.13
2019-06-20T01:58:01.293Z,10.60
